Time Latitude Longitude Accuracy (66% radius in meters) Altitude (meters) Speed (km/hour) Bearing (degrees) Battery (%) GPS flag
12:31:34 57.112574 39.347951 2 107.69999694824 2.0199999809265 267.451171875 1 1 delete
12:31:29 57.112577 39.348118 2 107.90000152588 1.8600000143051 274.33410644531 1 1 delete
12:31:24 57.112561 39.348288 2.5 108.5 1.8999999761581 271.60949707031 1 1 delete
12:31:13 57.112550 39.348577 7 103.09999847412 1.5 262.21069335938 1 1 delete
12:21:04 57.109409 39.362162 2 107.19999694824 1.4399999380112 316.7578125 2 1 delete
12:20:54 57.109308 39.362300 2.5 106.30000305176 1.3700000047684 309.01794433594 2 1 delete
12:20:43 57.109224 39.362467 7.5 105.40000152588 1.7400000095367 312.978515625 2 1 delete
12:10:33 57.103779 39.374755 2 106.19999694824 1.3199999332428 301.52526855469 2 1 delete
12:10:23 57.103697 39.374972 2 105.40000152588 1.3700000047684 310.86364746094 2 1 delete
12:10:13 57.103620 39.375160 3.5 103.09999847412 1.3700000047684 299.35546875 2 1 delete
12:10:07 57.103596 39.375322 7.5 107.19999694824 1.4599999189377 308.68286132812 2 1 delete
12:00:03 57.107553 39.388045 2.5 115.09999847412 1.1599999666214 308.74328613281 3 1 delete
11:59:58 57.107511 39.388221 2.5 116.5 2.210000038147 297.22412109375 3 1 delete
11:59:53 57.107481 39.388425 2.5 116.40000152588 2.2400000095367 288.5009765625 3 1 delete
11:59:48 57.107429 39.388645 3 115.69999694824 1.8899999856949 300.99792480469 3 1 delete
11:59:43 57.107360 39.388813 3.5 111.5 1.7300000190735 295.65856933594 3 1 delete
11:59:37 57.107337 39.389041 9 110.5 2.1099998950958 284.67224121094 3 1 delete
11:49:33 57.096056 39.390866 2 111.30000305176 2.710000038147 339.07104492188 3 1 delete
11:49:28 57.095948 39.390951 2 108.69999694824 2.1800000667572 337.13195800781 3 1 delete
11:49:23 57.095836 39.390999 2 106 2.5299999713898 3.5101318359375 3 1 delete
11:49:18 57.095725 39.390959 2 107 2.5499999523163 22.906494140625 3 1 delete
11:49:13 57.095610 39.390847 2.5 104 2.7300000190735 33.255615234375 3 1 delete
11:49:07 57.095492 39.390726 9 112.69999694824 2.8499999046326 28.416137695312 3 1 delete
11:38:58 57.080678 39.389120 2 148.30000305176 2.8499999046326 341.07055664062 4 1 delete
11:38:53 57.080560 39.389203 2 147.80000305176 2.4400000572205 341.26831054688 4 1 delete
11:38:48 57.080451 39.389277 2.5 147.89999389648 2.460000038147 342.49877929688 4 1 delete
11:38:43 57.080349 39.389325 3 146.69999694824 2.2400000095367 345.3662109375 4 1 delete
11:38:37 57.080233 39.389346 10 142.5 2.3799998760223 344.92126464844 4 1 delete
11:28:28 57.075215 39.389077 2.5 151.5 0.18999999761581 91.939086914062 4 1 delete
11:28:07 57.075200 39.389072 7 160.5 0.089999996125698 57.222290039062 4 1 delete
11:17:56 57.065646 39.391694 1.5 159.19999694824 1.5899999141693 1.505126953125 5 1 delete
11:17:51 57.065577 39.391704 1.5 159.60000610352 1.4399999380112 353.13903808594 5 1 delete
11:17:46 57.065509 39.391735 1.5 159.10000610352 1.5599999427795 345.10803222656 5 1 delete
11:17:36 57.065383 39.391800 2 158.60000610352 1.3199999332428 345.1904296875 5 1 delete
11:17:25 57.065241 39.391921 7.5 165.89999389648 1.3799999952316 358.17626953125 5 1 delete
11:07:16 57.057173 39.389241 3 177.80000305176 1.1299999952316 5.7623291015625 5 1 delete
11:07:11 57.057103 39.389204 3 177.89999389648 1.2099999189377 7.3992919921875 5 1 delete
11:07:06 57.057033 39.389176 3.5 179.39999389648 1.1899999380112 14.035034179688 5 1 delete
11:06:55 57.056878 39.389144 8.5 191.60000610352 0.52999997138977 18.429565429688 5 1 delete
10:56:40 57.050878 39.392846 2 156.19999694824 0.75 2.83447265625 5 1 delete
10:56:25 57.050740 39.392794 2 156.89999389648 0.95999997854233 12.89794921875 5 1 delete
10:56:15 57.050645 39.392748 2 154.30000305176 0.75 8.28369140625 5 1 delete
10:56:10 57.050602 39.392724 2 154.30000305176 0.83999997377396 11.656494140625 5 1 delete
10:56:00 57.050518 39.392702 2.5 154.30000305176 0.68999999761581 16.660766601562 5 1 delete
10:55:49 57.050421 39.392669 8.5 162.10000610352 0.44999998807907 354.13879394531 5 1 delete
10:45:32 57.046152 39.395339 2 170.30000305176 0.74000000953674 347.10205078125 5 1 delete
10:45:22 57.046093 39.395310 2 166.69999694824 0.46999999880791 6.8170166015625 5 1 delete
10:45:17 57.046067 39.395283 2 164.80000305176 0.61000001430511 1.6314697265625 5 1 delete
10:45:01 57.045961 39.395345 9.5 165 1.0699999332428 349.98596191406 5 1 delete
10:34:40 57.042781 39.399872 1 172.80000305176 0.69999998807907 339.76867675781 6 1 delete